CST,Max TemperatureF,Mean TemperatureF,Min TemperatureF,Max Dew PointF,MeanDew PointF,Min DewpointF,Max Humidity, Mean Humidity, Min Humidity, Max Sea Level PressureIn, Mean Sea Level PressureIn, Min Sea Level PressureIn, Max VisibilityMiles, Mean VisibilityMiles, Min VisibilityMiles, Max Wind SpeedMPH, Mean Wind SpeedMPH, Max Gust SpeedMPH,PrecipitationIn, CloudCover, Events, WindDirDegrees
2013-1-1,19,7,-5,18,7,-11,100,85,72,30.24,30.16,30.01,10,9,0,15,4,16,0.00,8,Fog,197
2013-1-2,32,18,5,28,20,3,100,94,80,30.13,30.00,29.94,10,7,0,18,8,25,0.00,8,Fog-Rain-Snow,266
2013-1-3,28,16,5,27,11,0,100,87,73,30.34,30.25,30.14,10,10,8,22,13,29,0.00,3,Snow,276
2013-1-4,24,16,8,16,12,5,93,83,64,30.17,30.11,30.06,10,10,9,14,8,14,0.00,0,,215
2013-1-5,26,14,1,21,12,0,100,87,74,30.11,29.99,29.89,10,9,6,24,8,30,0.00,2,Snow,264
2013-1-6,23,13,3,19,11,0,100,89,79,30.24,30.15,29.98,10,10,7,18,9,17,0.00,0,,226
2013-1-7,32,21,10,28,21,9,100,87,74,29.99,29.95,29.89,10,8,0,24,12,30,0.00,0,Snow,211
2013-1-8,32,21,10,30,22,9,100,98,87,30.03,29.86,29.73,10,6,0,15,7,18,0.00,2,Fog-Snow,187
2013-1-9,35,28,21,32,28,21,100,91,75,30.34,30.23,30.03,10,10,10,16,12,22,0.00,0,,212
2013-1-10,37,32,28,34,30,23,100,88,65,30.26,29.96,29.63,10,7,0,17,13,23,0.01,4,Fog-Rain,149
2013-1-11,39,32,23,39,35,23,100,100,93,29.61,29.47,29.34,10,3,0,28,14,36,0.00,8,Fog-Rain,190
2013-1-12,23,14,5,21,5,-2,93,74,62,30.09,29.92,29.57,10,9,2,34,22,43,0.00,7,Rain-Snow,293
2013-1-13,14,8,3,3,1,-2,85,72,53,30.25,30.14,30.06,10,10,9,17,11,22,0.00,4,Rain,300
2013-1-14,24,14,5,12,8,1,92,79,59,30.38,30.30,30.24,10,10,10,13,7,13,0.00,1,,219
2013-1-15,32,23,14,19,14,10,93,74,44,30.25,30.11,29.89,10,10,10,20,11,29,0.00,1,,205
2013-1-16,44,30,14,36,24,3,100,80,54,30.25,29.93,29.76,10,10,10,28,15,34,0.00,4,,282
2013-1-17,32,22,12,28,15,3,100,75,62,30.40,30.32,30.16,10,10,5,17,6,15,0.00,5,,287
2013-1-18,48,39,30,34,31,28,100,82,57,30.14,29.90,29.80,10,10,6,20,14,25,0.00,0,,217
2013-1-19,42,25,8,34,23,-2,100,75,51,30.31,29.98,29.76,10,10,10,36,14,46,0.00,3,,298
2013-1-20,10,5,0,5,-1,-9,85,73,61,30.40,30.33,30.29,10,8,0,21,12,29,0.00,6,Rain-Snow,313
2013-1-21,3,-3,-9,-6,-12,-17,78,67,60,30.38,30.33,30.29,10,10,2,24,15,32,0.00,2,,295
2013-1-22,14,6,-2,9,0,-8,85,72,53,30.34,30.26,30.16,10,10,7,14,5,,0.00,7,Snow,211
2013-1-23,19,8,-4,14,3,-15,92,74,56,30.53,30.28,30.10,10,10,8,22,12,28,0.00,3,Snow,329
2013-1-24,15,5,-5,7,-5,-15,68,62,57,30.57,30.35,30.07,10,10,10,24,13,26,0.00,3,,128
2013-1-25,28,16,5,23,9,0,93,73,58,30.26,30.12,30.02,10,10,9,24,11,30,0.00,2,,299
2013-1-26,35,19,3,23,10,-2,78,67,54,30.26,30.12,29.98,10,10,10,20,10,26,0.00,3,,135
2013-1-27,33,32,30,34,30,21,100,91,65,29.97,29.81,29.71,10,4,0,16,11,20,0.00,7,Fog-Rain,137
2013-1-28,35,34,33,36,34,34,100,100,100,29.83,29.74,29.55,1,0,0,13,5,,0.00,8,Fog,125
2013-1-29,35,30,23,36,31,21,100,98,87,29.74,29.65,29.55,10,7,0,33,13,38,0.00,8,Fog,341
2013-1-30,23,14,3,19,11,-2,86,79,72,29.87,29.77,29.70,10,9,2,33,24,44,0.00,8,Rain-Snow,323
2013-1-31,3,-1,-5,-4,-10,-15,78,67,56,30.32,30.12,29.86,10,9,2,30,19,39,0.00,5,Rain-Snow,311